sensor_id;sensor_type;location;lat;lon;timestamp;temperature;humidity
51839;DHT22;37886;53.174;6.368;2023-03-01T00:01:28;-1.80;99.90
51839;DHT22;37886;53.174;6.368;2023-03-01T00:03:55;-1.80;99.90
51839;DHT22;37886;53.174;6.368;2023-03-01T00:06:22;-1.80;99.90
51839;DHT22;37886;53.174;6.368;2023-03-01T00:08:48;-1.80;99.90
51839;DHT22;37886;53.174;6.368;2023-03-01T00:11:16;-1.80;99.90
51839;DHT22;37886;53.174;6.368;2023-03-01T00:13:43;-1.80;99.90
51839;DHT22;37886;53.174;6.368;2023-03-01T00:16:14;-1.70;99.90
51839;DHT22;37886;53.174;6.368;2023-03-01T00:18:41;-1.80;99.90
51839;DHT22;37886;53.174;6.368;2023-03-01T00:21:07;-1.80;99.90
51839;DHT22;37886;53.174;6.368;2023-03-01T00:23:35;-1.70;99.90
51839;DHT22;37886;53.174;6.368;2023-03-01T00:26:02;-1.70;99.90
51839;DHT22;37886;53.174;6.368;2023-03-01T00:28:31;-1.80;99.90
51839;DHT22;37886;53.174;6.368;2023-03-01T00:31:03;-1.80;99.90
51839;DHT22;37886;53.174;6.368;2023-03-01T00:33:28;-1.80;99.90
51839;DHT22;37886;53.174;6.368;2023-03-01T00:35:54;-1.70;99.90
51839;DHT22;37886;53.174;6.368;2023-03-01T00:38:20;-1.80;99.90
51839;DHT22;37886;53.174;6.368;2023-03-01T00:40:45;-1.90;99.90
51839;DHT22;37886;53.174;6.368;2023-03-01T00:43:11;-1.90;99.90
51839;DHT22;37886;53.174;6.368;2023-03-01T00:45:37;-1.90;99.90
51839;DHT22;37886;53.174;6.368;2023-03-01T00:48:02;-1.90;99.90
51839;DHT22;37886;53.174;6.368;2023-03-01T00:50:28;-1.90;99.90
51839;DHT22;37886;53.174;6.368;2023-03-01T00:52:55;-1.90;99.90
51839;DHT22;37886;53.174;6.368;2023-03-01T00:55:21;-2.00;99.90
51839;DHT22;37886;53.174;6.368;2023-03-01T00:57:47;-2.00;99.90
51839;DHT22;37886;53.174;6.368;2023-03-01T01:00:13;-2.00;99.90
51839;DHT22;37886;53.174;6.368;2023-03-01T01:02:38;-2.00;99.90
51839;DHT22;37886;53.174;6.368;2023-03-01T01:05:04;-2.00;99.90
51839;DHT22;37886;53.174;6.368;2023-03-01T01:07:30;-2.10;99.90
51839;DHT22;37886;53.174;6.368;2023-03-01T01:09:56;-2.20;99.90
51839;DHT22;37886;53.174;6.368;2023-03-01T01:12:22;-2.20;99.90
51839;DHT22;37886;53.174;6.368;2023-03-01T01:14:47;-2.20;99.90
51839;DHT22;37886;53.174;6.368;2023-03-01T01:17:13;-2.30;99.90
51839;DHT22;37886;53.174;6.368;2023-03-01T01:19:39;-2.30;99.90
51839;DHT22;37886;53.174;6.368;2023-03-01T01:22:04;-2.30;99.90
51839;DHT22;37886;53.174;6.368;2023-03-01T01:24:30;-2.40;99.90
51839;DHT22;37886;53.174;6.368;2023-03-01T01:26:56;-2.50;99.90
51839;DHT22;37886;53.174;6.368;2023-03-01T01:29:22;-2.50;99.90
51839;DHT22;37886;53.174;6.368;2023-03-01T01:31:48;-2.60;99.90
51839;DHT22;37886;53.174;6.368;2023-03-01T01:34:19;-2.60;99.90
51839;DHT22;37886;53.174;6.368;2023-03-01T01:36:52;-2.70;99.90
51839;DHT22;37886;53.174;6.368;2023-03-01T01:39:20;-2.70;99.90
51839;DHT22;37886;53.174;6.368;2023-03-01T01:41:46;-2.70;99.90
51839;DHT22;37886;53.174;6.368;2023-03-01T01:49:54;-2.80;99.90
51839;DHT22;37886;53.174;6.368;2023-03-01T01:52:25;-2.80;99.90
51839;DHT22;37886;53.174;6.368;2023-03-01T01:54:57;-2.80;99.90
51839;DHT22;37886;53.174;6.368;2023-03-01T01:57:41;-2.80;99.90
51839;DHT22;37886;53.174;6.368;2023-03-01T02:00:17;-2.80;99.90
51839;DHT22;37886;53.174;6.368;2023-03-01T02:02:45;-2.80;99.90
51839;DHT22;37886;53.174;6.368;2023-03-01T02:05:17;-2.80;99.90
51839;DHT22;37886;53.174;6.368;2023-03-01T02:07:45;-2.90;99.90
51839;DHT22;37886;53.174;6.368;2023-03-01T02:10:12;-2.80;99.90
51839;DHT22;37886;53.174;6.368;2023-03-01T02:12:38;-2.80;99.90
51839;DHT22;37886;53.174;6.368;2023-03-01T02:15:07;-2.90;99.90
51839;DHT22;37886;53.174;6.368;2023-03-01T02:17:40;-2.90;99.90
51839;DHT22;37886;53.174;6.368;2023-03-01T02:22:46;-2.90;99.90
51839;DHT22;37886;53.174;6.368;2023-03-01T02:30:39;-2.90;99.90
51839;DHT22;37886;53.174;6.368;2023-03-01T02:33:26;-3.00;99.90
51839;DHT22;37886;53.174;6.368;2023-03-01T02:35:54;-3.00;99.90
51839;DHT22;37886;53.174;6.368;2023-03-01T02:38:21;-3.00;99.90
51839;DHT22;37886;53.174;6.368;2023-03-01T02:40:49;-3.00;99.90
51839;DHT22;37886;53.174;6.368;2023-03-01T02:43:16;-3.00;99.90
51839;DHT22;37886;53.174;6.368;2023-03-01T02:45:51;-2.90;99.90
51839;DHT22;37886;53.174;6.368;2023-03-01T02:48:19;-2.90;99.90
51839;DHT22;37886;53.174;6.368;2023-03-01T02:51:10;-2.90;99.90
51839;DHT22;37886;53.174;6.368;2023-03-01T02:53:41;-2.90;99.90
51839;DHT22;37886;53.174;6.368;2023-03-01T02:56:12;-2.90;99.90
51839;DHT22;37886;53.174;6.368;2023-03-01T02:58:41;-2.90;99.90
51839;DHT22;37886;53.174;6.368;2023-03-01T03:01:12;-2.90;99.90
51839;DHT22;37886;53.174;6.368;2023-03-01T03:03:40;-3.00;99.90
51839;DHT22;37886;53.174;6.368;2023-03-01T03:06:06;-3.00;99.90
51839;DHT22;37886;53.174;6.368;2023-03-01T03:08:32;-3.00;99.90
51839;DHT22;37886;53.174;6.368;2023-03-01T03:10:57;-3.00;99.90
51839;DHT22;37886;53.174;6.368;2023-03-01T03:13:23;-2.90;99.90
51839;DHT22;37886;53.174;6.368;2023-03-01T03:15:54;-2.90;99.90
51839;DHT22;37886;53.174;6.368;2023-03-01T03:18:21;-2.90;99.90
51839;DHT22;37886;53.174;6.368;2023-03-01T03:20:48;-2.90;99.90
51839;DHT22;37886;53.174;6.368;2023-03-01T03:23:19;-2.90;99.90
51839;DHT22;37886;53.174;6.368;2023-03-01T03:25:48;-3.00;99.90
51839;DHT22;37886;53.174;6.368;2023-03-01T03:28:14;-3.00;99.90
51839;DHT22;37886;53.174;6.368;2023-03-01T03:30:42;-3.00;99.90
51839;DHT22;37886;53.174;6.368;2023-03-01T03:33:09;-3.00;99.90
51839;DHT22;37886;53.174;6.368;2023-03-01T03:35:46;-3.10;99.90
51839;DHT22;37886;53.174;6.368;2023-03-01T03:38:14;-3.10;99.90
51839;DHT22;37886;53.174;6.368;2023-03-01T03:40:45;-3.00;99.90
51839;DHT22;37886;53.174;6.368;2023-03-01T03:43:17;-3.00;99.90
51839;DHT22;37886;53.174;6.368;2023-03-01T03:45:47;-3.00;99.90
51839;DHT22;37886;53.174;6.368;2023-03-01T03:48:14;-3.10;99.90
51839;DHT22;37886;53.174;6.368;2023-03-01T03:50:40;-3.10;99.90
51839;DHT22;37886;53.174;6.368;2023-03-01T03:53:11;-3.10;99.90
51839;DHT22;37886;53.174;6.368;2023-03-01T03:55:37;-3.10;99.90
51839;DHT22;37886;53.174;6.368;2023-03-01T03:58:06;-3.10;99.90
51839;DHT22;37886;53.174;6.368;2023-03-01T04:00:37;-3.20;99.90
51839;DHT22;37886;53.174;6.368;2023-03-01T04:03:03;-3.20;99.90
51839;DHT22;37886;53.174;6.368;2023-03-01T04:05:29;-3.30;99.90
51839;DHT22;37886;53.174;6.368;2023-03-01T04:07:55;-3.40;99.90
51839;DHT22;37886;53.174;6.368;2023-03-01T04:10:35;-3.50;99.90
51839;DHT22;37886;53.174;6.368;2023-03-01T04:13:03;-3.50;99.90
51839;DHT22;37886;53.174;6.368;2023-03-01T04:15:29;-3.60;99.90
51839;DHT22;37886;53.174;6.368;2023-03-01T04:17:55;-3.70;99.90
51839;DHT22;37886;53.174;6.368;2023-03-01T04:20:27;-3.80;99.90
51839;DHT22;37886;53.174;6.368;2023-03-01T04:23:16;-3.80;99.90
51839;DHT22;37886;53.174;6.368;2023-03-01T04:25:50;-3.70;99.90
51839;DHT22;37886;53.174;6.368;2023-03-01T04:28:32;-3.70;99.90
51839;DHT22;37886;53.174;6.368;2023-03-01T04:31:03;-3.70;99.90
51839;DHT22;37886;53.174;6.368;2023-03-01T04:33:39;-3.70;99.90
51839;DHT22;37886;53.174;6.368;2023-03-01T04:36:05;-3.70;99.90
51839;DHT22;37886;53.174;6.368;2023-03-01T04:38:34;-3.70;99.90
51839;DHT22;37886;53.174;6.368;2023-03-01T04:41:01;-3.70;99.90
51839;DHT22;37886;53.174;6.368;2023-03-01T04:43:28;-3.70;99.90
51839;DHT22;37886;53.174;6.368;2023-03-01T04:45:54;-3.80;99.90
51839;DHT22;37886;53.174;6.368;2023-03-01T04:48:20;-3.80;99.90
51839;DHT22;37886;53.174;6.368;2023-03-01T04:50:45;-3.80;99.90
51839;DHT22;37886;53.174;6.368;2023-03-01T04:53:11;-3.80;99.90
51839;DHT22;37886;53.174;6.368;2023-03-01T04:55:37;-3.90;99.90
51839;DHT22;37886;53.174;6.368;2023-03-01T04:58:02;-3.90;99.90
51839;DHT22;37886;53.174;6.368;2023-03-01T05:00:28;-4.00;99.90
51839;DHT22;37886;53.174;6.368;2023-03-01T05:03:00;-4.00;99.90
51839;DHT22;37886;53.174;6.368;2023-03-01T05:05:37;-4.00;99.90
51839;DHT22;37886;53.174;6.368;2023-03-01T05:08:06;-4.00;99.90
51839;DHT22;37886;53.174;6.368;2023-03-01T05:10:34;-4.00;99.90
51839;DHT22;37886;53.174;6.368;2023-03-01T05:13:01;-4.10;99.90
51839;DHT22;37886;53.174;6.368;2023-03-01T05:15:30;-4.10;99.90
51839;DHT22;37886;53.174;6.368;2023-03-01T05:17:58;-4.20;99.90
51839;DHT22;37886;53.174;6.368;2023-03-01T05:20:25;-4.20;99.90
51839;DHT22;37886;53.174;6.368;2023-03-01T05:22:52;-4.20;99.90
51839;DHT22;37886;53.174;6.368;2023-03-01T05:25:20;-4.30;99.90
51839;DHT22;37886;53.174;6.368;2023-03-01T05:27:47;-4.30;99.90
51839;DHT22;37886;53.174;6.368;2023-03-01T05:30:13;-4.30;99.90
51839;DHT22;37886;53.174;6.368;2023-03-01T05:32:47;-4.30;99.90
51839;DHT22;37886;53.174;6.368;2023-03-01T05:35:15;-4.30;99.90
51839;DHT22;37886;53.174;6.368;2023-03-01T05:37:42;-4.30;99.90
51839;DHT22;37886;53.174;6.368;2023-03-01T05:40:14;-4.30;99.90
51839;DHT22;37886;53.174;6.368;2023-03-01T05:42:44;-4.30;99.90
51839;DHT22;37886;53.174;6.368;2023-03-01T05:45:11;-4.30;99.90
51839;DHT22;37886;53.174;6.368;2023-03-01T05:47:41;-4.30;99.90
51839;DHT22;37886;53.174;6.368;2023-03-01T05:50:12;-4.30;99.90
51839;DHT22;37886;53.174;6.368;2023-03-01T05:52:38;-4.30;99.90
51839;DHT22;37886;53.174;6.368;2023-03-01T05:55:04;-4.30;99.90
51839;DHT22;37886;53.174;6.368;2023-03-01T05:57:30;-4.30;99.90
51839;DHT22;37886;53.174;6.368;2023-03-01T05:59:55;-4.20;99.90
51839;DHT22;37886;53.174;6.368;2023-03-01T06:02:21;-4.20;99.90
51839;DHT22;37886;53.174;6.368;2023-03-01T06:04:47;-4.20;99.90
51839;DHT22;37886;53.174;6.368;2023-03-01T06:07:12;-4.20;99.90
51839;DHT22;37886;53.174;6.368;2023-03-01T06:09:38;-4.20;99.90
51839;DHT22;37886;53.174;6.368;2023-03-01T06:12:04;-4.20;99.90
51839;DHT22;37886;53.174;6.368;2023-03-01T06:14:30;-4.20;99.90
51839;DHT22;37886;53.174;6.368;2023-03-01T06:16:56;-4.20;99.90
51839;DHT22;37886;53.174;6.368;2023-03-01T06:19:21;-4.20;99.90
51839;DHT22;37886;53.174;6.368;2023-03-01T06:21:47;-4.20;99.90
51839;DHT22;37886;53.174;6.368;2023-03-01T06:24:13;-4.20;99.90
51839;DHT22;37886;53.174;6.368;2023-03-01T06:26:38;-4.20;99.90
51839;DHT22;37886;53.174;6.368;2023-03-01T06:29:04;-4.30;99.90
51839;DHT22;37886;53.174;6.368;2023-03-01T06:31:30;-4.30;99.90
51839;DHT22;37886;53.174;6.368;2023-03-01T06:33:55;-4.20;99.90
51839;DHT22;37886;53.174;6.368;2023-03-01T06:36:21;-4.20;99.90
51839;DHT22;37886;53.174;6.368;2023-03-01T06:38:47;-4.20;99.90
51839;DHT22;37886;53.174;6.368;2023-03-01T06:41:13;-4.20;99.90
51839;DHT22;37886;53.174;6.368;2023-03-01T06:43:38;-4.20;99.90
51839;DHT22;37886;53.174;6.368;2023-03-01T06:46:05;-4.20;99.90
51839;DHT22;37886;53.174;6.368;2023-03-01T06:48:32;-4.10;99.90
51839;DHT22;37886;53.174;6.368;2023-03-01T06:50:59;-4.10;99.90
51839;DHT22;37886;53.174;6.368;2023-03-01T06:53:27;-4.00;99.90
51839;DHT22;37886;53.174;6.368;2023-03-01T06:55:56;-4.00;99.90
51839;DHT22;37886;53.174;6.368;2023-03-01T06:58:23;-3.90;99.90
51839;DHT22;37886;53.174;6.368;2023-03-01T07:00:48;-3.90;99.90
51839;DHT22;37886;53.174;6.368;2023-03-01T07:03:14;-3.70;99.90
51839;DHT22;37886;53.174;6.368;2023-03-01T07:05:40;-3.70;99.90
51839;DHT22;37886;53.174;6.368;2023-03-01T07:08:06;-3.60;99.90
51839;DHT22;37886;53.174;6.368;2023-03-01T07:10:31;-3.60;99.90
51839;DHT22;37886;53.174;6.368;2023-03-01T07:12:58;-3.50;99.90
51839;DHT22;37886;53.174;6.368;2023-03-01T07:15:24;-3.40;99.90
51839;DHT22;37886;53.174;6.368;2023-03-01T07:17:51;-3.40;99.90
51839;DHT22;37886;53.174;6.368;2023-03-01T07:20:18;-3.30;99.90
51839;DHT22;37886;53.174;6.368;2023-03-01T07:22:44;-3.30;99.90
51839;DHT22;37886;53.174;6.368;2023-03-01T07:25:10;-3.20;99.90
51839;DHT22;37886;53.174;6.368;2023-03-01T07:27:36;-3.10;99.90
51839;DHT22;37886;53.174;6.368;2023-03-01T07:30:02;-3.00;99.90
51839;DHT22;37886;53.174;6.368;2023-03-01T07:32:28;-2.90;99.90
51839;DHT22;37886;53.174;6.368;2023-03-01T07:34:54;-2.80;99.90
51839;DHT22;37886;53.174;6.368;2023-03-01T07:37:19;-2.70;99.90
51839;DHT22;37886;53.174;6.368;2023-03-01T07:39:45;-2.70;99.90
51839;DHT22;37886;53.174;6.368;2023-03-01T07:42:11;-2.60;99.90
51839;DHT22;37886;53.174;6.368;2023-03-01T07:44:36;-2.50;99.90
51839;DHT22;37886;53.174;6.368;2023-03-01T07:47:04;-2.40;99.90
51839;DHT22;37886;53.174;6.368;2023-03-01T07:49:29;-2.30;99.90
51839;DHT22;37886;53.174;6.368;2023-03-01T07:51:55;-2.20;99.90
51839;DHT22;37886;53.174;6.368;2023-03-01T07:54:21;-2.10;99.90
51839;DHT22;37886;53.174;6.368;2023-03-01T07:56:47;-2.00;99.90
51839;DHT22;37886;53.174;6.368;2023-03-01T07:59:13;-1.90;99.90
51839;DHT22;37886;53.174;6.368;2023-03-01T08:01:39;-1.80;99.90
51839;DHT22;37886;53.174;6.368;2023-03-01T08:04:04;-1.70;99.90
51839;DHT22;37886;53.174;6.368;2023-03-01T08:06:34;-1.60;99.90
51839;DHT22;37886;53.174;6.368;2023-03-01T08:09:00;-1.50;99.90
51839;DHT22;37886;53.174;6.368;2023-03-01T08:11:25;-1.40;99.90
51839;DHT22;37886;53.174;6.368;2023-03-01T08:13:53;-1.30;99.90
51839;DHT22;37886;53.174;6.368;2023-03-01T08:16:19;-1.10;99.90
51839;DHT22;37886;53.174;6.368;2023-03-01T08:18:45;-1.00;99.90
51839;DHT22;37886;53.174;6.368;2023-03-01T08:21:13;-1.00;99.90
51839;DHT22;37886;53.174;6.368;2023-03-01T08:23:39;-0.90;99.90
51839;DHT22;37886;53.174;6.368;2023-03-01T08:26:07;-0.80;99.90
51839;DHT22;37886;53.174;6.368;2023-03-01T08:28:33;-0.70;99.90
51839;DHT22;37886;53.174;6.368;2023-03-01T08:30:59;-0.80;99.90
51839;DHT22;37886;53.174;6.368;2023-03-01T08:33:25;-0.70;99.90
51839;DHT22;37886;53.174;6.368;2023-03-01T08:35:50;-0.60;99.90
51839;DHT22;37886;53.174;6.368;2023-03-01T08:38:16;-0.60;99.90
51839;DHT22;37886;53.174;6.368;2023-03-01T08:40:42;-0.60;99.90
51839;DHT22;37886;53.174;6.368;2023-03-01T08:43:07;-0.50;99.90
51839;DHT22;37886;53.174;6.368;2023-03-01T08:45:33;-0.50;99.90
51839;DHT22;37886;53.174;6.368;2023-03-01T08:47:59;-0.40;99.90
51839;DHT22;37886;53.174;6.368;2023-03-01T08:50:24;-0.30;99.90
51839;DHT22;37886;53.174;6.368;2023-03-01T08:52:50;-0.20;99.90
51839;DHT22;37886;53.174;6.368;2023-03-01T08:55:16;-0.20;99.90
51839;DHT22;37886;53.174;6.368;2023-03-01T08:57:43;0.00;99.90
51839;DHT22;37886;53.174;6.368;2023-03-01T09:00:10;0.10;99.90
51839;DHT22;37886;53.174;6.368;2023-03-01T09:02:36;0.20;99.90
51839;DHT22;37886;53.174;6.368;2023-03-01T09:05:03;0.30;99.90
51839;DHT22;37886;53.174;6.368;2023-03-01T09:07:29;0.40;99.90
51839;DHT22;37886;53.174;6.368;2023-03-01T09:09:54;0.60;99.90
51839;DHT22;37886;53.174;6.368;2023-03-01T09:12:21;0.60;99.90
51839;DHT22;37886;53.174;6.368;2023-03-01T09:14:47;0.80;99.90
51839;DHT22;37886;53.174;6.368;2023-03-01T09:17:12;1.10;99.90
51839;DHT22;37886;53.174;6.368;2023-03-01T09:19:38;1.10;99.90
51839;DHT22;37886;53.174;6.368;2023-03-01T09:22:04;1.20;99.90
51839;DHT22;37886;53.174;6.368;2023-03-01T09:24:30;1.30;99.90
51839;DHT22;37886;53.174;6.368;2023-03-01T09:26:55;1.50;99.90
51839;DHT22;37886;53.174;6.368;2023-03-01T09:29:21;1.50;99.90
51839;DHT22;37886;53.174;6.368;2023-03-01T09:31:47;1.60;99.90
51839;DHT22;37886;53.174;6.368;2023-03-01T09:34:13;1.80;99.90
51839;DHT22;37886;53.174;6.368;2023-03-01T09:36:41;1.90;99.90
51839;DHT22;37886;53.174;6.368;2023-03-01T09:39:07;2.00;99.90
51839;DHT22;37886;53.174;6.368;2023-03-01T09:44:38;2.20;99.90
51839;DHT22;37886;53.174;6.368;2023-03-01T09:47:12;2.40;99.90
51839;DHT22;37886;53.174;6.368;2023-03-01T09:49:41;2.50;99.90
51839;DHT22;37886;53.174;6.368;2023-03-01T09:55:16;2.80;99.90
51839;DHT22;37886;53.174;6.368;2023-03-01T09:57:50;2.80;99.90
51839;DHT22;37886;53.174;6.368;2023-03-01T10:10:56;3.50;99.90
51839;DHT22;37886;53.174;6.368;2023-03-01T10:16:21;3.60;99.90
51839;DHT22;37886;53.174;6.368;2023-03-01T10:18:53;3.80;99.90
51839;DHT22;37886;53.174;6.368;2023-03-01T10:21:20;3.80;99.90
51839;DHT22;37886;53.174;6.368;2023-03-01T10:23:50;4.00;99.90
51839;DHT22;37886;53.174;6.368;2023-03-01T10:29:01;4.30;99.90
51839;DHT22;37886;53.174;6.368;2023-03-01T10:31:43;4.40;99.90
51839;DHT22;37886;53.174;6.368;2023-03-01T10:34:18;4.50;99.90
51839;DHT22;37886;53.174;6.368;2023-03-01T10:36:47;4.70;99.90
51839;DHT22;37886;53.174;6.368;2023-03-01T10:39:19;4.80;99.90
51839;DHT22;37886;53.174;6.368;2023-03-01T10:42:19;4.90;99.90
51839;DHT22;37886;53.174;6.368;2023-03-01T10:44:48;4.90;99.90
51839;DHT22;37886;53.174;6.368;2023-03-01T10:47:24;5.00;99.90
51839;DHT22;37886;53.174;6.368;2023-03-01T10:49:56;5.00;99.90
51839;DHT22;37886;53.174;6.368;2023-03-01T10:52:26;5.20;99.90
51839;DHT22;37886;53.174;6.368;2023-03-01T10:55:19;5.30;99.90
51839;DHT22;37886;53.174;6.368;2023-03-01T10:57:40;5.40;99.90
51839;DHT22;37886;53.174;6.368;2023-03-01T11:00:16;5.40;99.90
51839;DHT22;37886;53.174;6.368;2023-03-01T11:05:28;5.60;99.90
51839;DHT22;37886;53.174;6.368;2023-03-01T11:08:00;5.70;99.90
51839;DHT22;37886;53.174;6.368;2023-03-01T11:10:28;5.70;99.90
51839;DHT22;37886;53.174;6.368;2023-03-01T11:15:35;5.90;99.90
51839;DHT22;37886;53.174;6.368;2023-03-01T11:18:01;6.10;99.90
51839;DHT22;37886;53.174;6.368;2023-03-01T11:20:37;6.10;99.90
51839;DHT22;37886;53.174;6.368;2023-03-01T11:23:11;6.10;99.90
51839;DHT22;37886;53.174;6.368;2023-03-01T11:25:40;6.20;99.90
51839;DHT22;37886;53.174;6.368;2023-03-01T11:28:16;6.30;99.90
51839;DHT22;37886;53.174;6.368;2023-03-01T11:38:57;6.70;99.90
51839;DHT22;37886;53.174;6.368;2023-03-01T11:41:31;6.80;99.90
51839;DHT22;37886;53.174;6.368;2023-03-01T11:44:15;6.90;99.90
51839;DHT22;37886;53.174;6.368;2023-03-01T11:52:36;6.90;99.90
51839;DHT22;37886;53.174;6.368;2023-03-01T11:55:30;7.00;99.90
51839;DHT22;37886;53.174;6.368;2023-03-01T12:04:05;7.60;99.90
51839;DHT22;37886;53.174;6.368;2023-03-01T12:14:40;7.60;99.90
51839;DHT22;37886;53.174;6.368;2023-03-01T12:20:28;7.90;99.90
51839;DHT22;37886;53.174;6.368;2023-03-01T12:34:30;9.00;99.90
51839;DHT22;37886;53.174;6.368;2023-03-01T12:50:36;9.60;99.90
51839;DHT22;37886;53.174;6.368;2023-03-01T12:52:40;9.80;99.90
51839;DHT22;37886;53.174;6.368;2023-03-01T12:55:26;10.10;99.90
51839;DHT22;37886;53.174;6.368;2023-03-01T12:58:03;10.10;99.90
51839;DHT22;37886;53.174;6.368;2023-03-01T13:00:48;10.30;99.90
51839;DHT22;37886;53.174;6.368;2023-03-01T13:03:23;10.40;99.90
51839;DHT22;37886;53.174;6.368;2023-03-01T13:06:15;10.10;99.90
51839;DHT22;37886;53.174;6.368;2023-03-01T13:09:05;10.00;99.90
51839;DHT22;37886;53.174;6.368;2023-03-01T13:11:33;9.90;99.90
51839;DHT22;37886;53.174;6.368;2023-03-01T13:16:49;10.30;99.90
51839;DHT22;37886;53.174;6.368;2023-03-01T13:19:23;10.60;99.90
51839;DHT22;37886;53.174;6.368;2023-03-01T13:21:51;10.80;99.90
51839;DHT22;37886;53.174;6.368;2023-03-01T13:27:20;11.00;99.90
51839;DHT22;37886;53.174;6.368;2023-03-01T13:29:54;11.00;99.90
51839;DHT22;37886;53.174;6.368;2023-03-01T13:32:33;10.70;99.90
51839;DHT22;37886;53.174;6.368;2023-03-01T13:35:40;10.30;99.90
51839;DHT22;37886;53.174;6.368;2023-03-01T13:41:02;9.70;99.90
51839;DHT22;37886;53.174;6.368;2023-03-01T13:43:37;9.60;99.90
51839;DHT22;37886;53.174;6.368;2023-03-01T13:48:44;9.70;99.90
51839;DHT22;37886;53.174;6.368;2023-03-01T13:51:11;9.70;99.90
51839;DHT22;37886;53.174;6.368;2023-03-01T13:53:44;9.70;99.90
51839;DHT22;37886;53.174;6.368;2023-03-01T13:56:20;9.50;99.90
51839;DHT22;37886;53.174;6.368;2023-03-01T13:58:56;9.50;99.90
51839;DHT22;37886;53.174;6.368;2023-03-01T14:01:32;9.50;99.90
51839;DHT22;37886;53.174;6.368;2023-03-01T14:03:59;10.30;99.90
51839;DHT22;37886;53.174;6.368;2023-03-01T14:06:30;10.90;99.90
51839;DHT22;37886;53.174;6.368;2023-03-01T14:09:27;11.30;99.90
51839;DHT22;37886;53.174;6.368;2023-03-01T14:14:42;11.70;99.60
51839;DHT22;37886;53.174;6.368;2023-03-01T14:17:22;11.30;99.90
51839;DHT22;37886;53.174;6.368;2023-03-01T14:19:57;12.10;99.90
51839;DHT22;37886;53.174;6.368;2023-03-01T14:22:28;12.30;98.70
51839;DHT22;37886;53.174;6.368;2023-03-01T14:27:43;12.20;98.70
51839;DHT22;37886;53.174;6.368;2023-03-01T14:30:23;12.50;99.10
51839;DHT22;37886;53.174;6.368;2023-03-01T14:33:01;12.20;98.10
51839;DHT22;37886;53.174;6.368;2023-03-01T14:35:31;12.60;99.10
51839;DHT22;37886;53.174;6.368;2023-03-01T14:37:57;13.00;98.70
51839;DHT22;37886;53.174;6.368;2023-03-01T14:40:32;13.20;97.70
51839;DHT22;37886;53.174;6.368;2023-03-01T14:43:01;12.60;97.30
51839;DHT22;37886;53.174;6.368;2023-03-01T14:45:29;12.60;97.80
51839;DHT22;37886;53.174;6.368;2023-03-01T14:48:00;12.80;97.90
51839;DHT22;37886;53.174;6.368;2023-03-01T14:50:27;13.50;96.70
51839;DHT22;37886;53.174;6.368;2023-03-01T14:53:20;13.20;97.20
51839;DHT22;37886;53.174;6.368;2023-03-01T14:56:00;12.80;96.80
51839;DHT22;37886;53.174;6.368;2023-03-01T14:58:32;12.70;97.00
51839;DHT22;37886;53.174;6.368;2023-03-01T15:01:00;12.90;97.30
51839;DHT22;37886;53.174;6.368;2023-03-01T15:03:31;12.90;97.00
51839;DHT22;37886;53.174;6.368;2023-03-01T15:05:59;13.10;97.10
51839;DHT22;37886;53.174;6.368;2023-03-01T15:08:26;13.60;96.60
51839;DHT22;37886;53.174;6.368;2023-03-01T15:13:26;11.70;97.90
51839;DHT22;37886;53.174;6.368;2023-03-01T15:16:04;10.20;99.90
51839;DHT22;37886;53.174;6.368;2023-03-01T15:18:31;9.60;99.90
51839;DHT22;37886;53.174;6.368;2023-03-01T15:21:13;9.30;99.90
51839;DHT22;37886;53.174;6.368;2023-03-01T15:23:40;8.80;99.90
51839;DHT22;37886;53.174;6.368;2023-03-01T15:26:16;8.60;99.90
51839;DHT22;37886;53.174;6.368;2023-03-01T15:28:50;8.40;99.90
51839;DHT22;37886;53.174;6.368;2023-03-01T15:31:22;8.30;99.90
51839;DHT22;37886;53.174;6.368;2023-03-01T15:33:48;8.30;99.90
51839;DHT22;37886;53.174;6.368;2023-03-01T15:39:02;8.10;99.90
51839;DHT22;37886;53.174;6.368;2023-03-01T15:41:32;8.20;99.90
51839;DHT22;37886;53.174;6.368;2023-03-01T15:44:26;9.30;99.90
51839;DHT22;37886;53.174;6.368;2023-03-01T15:46:52;10.70;99.90
51839;DHT22;37886;53.174;6.368;2023-03-01T15:49:41;10.70;99.90
51839;DHT22;37886;53.174;6.368;2023-03-01T15:52:17;9.50;99.90
51839;DHT22;37886;53.174;6.368;2023-03-01T15:54:44;10.00;99.90
51839;DHT22;37886;53.174;6.368;2023-03-01T15:57:14;11.10;99.90
51839;DHT22;37886;53.174;6.368;2023-03-01T15:59:41;10.90;99.90
51839;DHT22;37886;53.174;6.368;2023-03-01T16:02:14;10.60;99.90
51839;DHT22;37886;53.174;6.368;2023-03-01T16:04:40;10.40;99.90
51839;DHT22;37886;53.174;6.368;2023-03-01T16:07:06;11.00;99.90
51839;DHT22;37886;53.174;6.368;2023-03-01T16:09:32;10.50;99.90
51839;DHT22;37886;53.174;6.368;2023-03-01T16:11:57;9.40;99.90
51839;DHT22;37886;53.174;6.368;2023-03-01T16:14:23;8.70;99.90
51839;DHT22;37886;53.174;6.368;2023-03-01T16:16:49;8.30;99.90
51839;DHT22;37886;53.174;6.368;2023-03-01T16:19:15;8.10;99.90
51839;DHT22;37886;53.174;6.368;2023-03-01T16:21:42;7.70;99.90
51839;DHT22;37886;53.174;6.368;2023-03-01T16:24:09;7.60;99.90
51839;DHT22;37886;53.174;6.368;2023-03-01T16:26:36;7.40;99.90
51839;DHT22;37886;53.174;6.368;2023-03-01T16:29:03;7.30;99.90
51839;DHT22;37886;53.174;6.368;2023-03-01T16:31:29;7.10;99.90
51839;DHT22;37886;53.174;6.368;2023-03-01T16:33:57;6.90;99.90
51839;DHT22;37886;53.174;6.368;2023-03-01T16:36:24;6.70;99.90
51839;DHT22;37886;53.174;6.368;2023-03-01T16:38:53;6.70;99.90
51839;DHT22;37886;53.174;6.368;2023-03-01T16:41:21;6.60;99.90
51839;DHT22;37886;53.174;6.368;2023-03-01T16:43:47;6.40;99.90
51839;DHT22;37886;53.174;6.368;2023-03-01T16:46:15;6.30;99.90
51839;DHT22;37886;53.174;6.368;2023-03-01T16:48:42;6.20;99.90
51839;DHT22;37886;53.174;6.368;2023-03-01T16:51:08;6.20;99.90
51839;DHT22;37886;53.174;6.368;2023-03-01T16:53:35;6.00;99.90
51839;DHT22;37886;53.174;6.368;2023-03-01T16:56:02;5.90;99.90
51839;DHT22;37886;53.174;6.368;2023-03-01T16:58:29;5.80;99.90
51839;DHT22;37886;53.174;6.368;2023-03-01T17:00:55;5.70;99.90
51839;DHT22;37886;53.174;6.368;2023-03-01T17:03:22;5.60;99.90
51839;DHT22;37886;53.174;6.368;2023-03-01T17:05:49;5.50;99.90
51839;DHT22;37886;53.174;6.368;2023-03-01T17:08:15;5.40;99.90
51839;DHT22;37886;53.174;6.368;2023-03-01T17:10:41;5.30;99.90
51839;DHT22;37886;53.174;6.368;2023-03-01T17:13:08;5.30;99.90
51839;DHT22;37886;53.174;6.368;2023-03-01T17:15:37;5.20;99.90
51839;DHT22;37886;53.174;6.368;2023-03-01T17:18:03;5.10;99.90
51839;DHT22;37886;53.174;6.368;2023-03-01T17:20:29;5.00;99.90
51839;DHT22;37886;53.174;6.368;2023-03-01T17:22:55;5.00;99.90
51839;DHT22;37886;53.174;6.368;2023-03-01T17:25:21;4.80;99.90
51839;DHT22;37886;53.174;6.368;2023-03-01T17:27:46;4.70;99.90
51839;DHT22;37886;53.174;6.368;2023-03-01T17:30:13;4.70;99.90
51839;DHT22;37886;53.174;6.368;2023-03-01T17:32:39;4.60;99.90
51839;DHT22;37886;53.174;6.368;2023-03-01T17:35:06;4.50;99.90
51839;DHT22;37886;53.174;6.368;2023-03-01T17:37:32;4.40;99.90
51839;DHT22;37886;53.174;6.368;2023-03-01T17:39:58;4.40;99.90
51839;DHT22;37886;53.174;6.368;2023-03-01T17:42:24;4.40;99.90
51839;DHT22;37886;53.174;6.368;2023-03-01T17:44:50;4.30;99.90
51839;DHT22;37886;53.174;6.368;2023-03-01T17:47:15;4.30;99.90